sensor_id;sensor_type;location;lat;lon;timestamp;pressure;altitude;pressure_sealevel;temperature;humidity
64632;BME280;58358;50.936;0.246;2023-10-09T00:01:00;101669.53;;;12.74;76.02
64632;BME280;58358;50.936;0.246;2023-10-09T00:03:25;101665.79;;;12.78;74.53
64632;BME280;58358;50.936;0.246;2023-10-09T00:05:51;101662.64;;;12.65;74.24
64632;BME280;58358;50.936;0.246;2023-10-09T00:08:17;101663.10;;;12.56;75.56
64632;BME280;58358;50.936;0.246;2023-10-09T00:10:44;101665.63;;;12.39;75.57
64632;BME280;58358;50.936;0.246;2023-10-09T00:13:08;101660.87;;;11.35;78.66
64632;BME280;58358;50.936;0.246;2023-10-09T00:15:33;101660.42;;;12.60;75.04
64632;BME280;58358;50.936;0.246;2023-10-09T00:17:59;101659.88;;;12.51;73.79
64632;BME280;58358;50.936;0.246;2023-10-09T00:20:24;101660.83;;;11.31;78.89
64632;BME280;58358;50.936;0.246;2023-10-09T00:22:50;101662.35;;;11.85;78.90
64632;BME280;58358;50.936;0.246;2023-10-09T00:25:15;101666.21;;;10.19;83.45
64632;BME280;58358;50.936;0.246;2023-10-09T00:27:42;101661.90;;;11.09;82.26
64632;BME280;58358;50.936;0.246;2023-10-09T00:30:09;101658.84;;;12.13;78.66
64632;BME280;58358;50.936;0.246;2023-10-09T00:32:32;101657.54;;;12.43;75.02
64632;BME280;58358;50.936;0.246;2023-10-09T00:34:58;101652.84;;;13.05;72.09
64632;BME280;58358;50.936;0.246;2023-10-09T00:37:24;101653.06;;;13.04;70.56
64632;BME280;58358;50.936;0.246;2023-10-09T00:39:49;101650.20;;;13.23;69.75
64632;BME280;58358;50.936;0.246;2023-10-09T00:42:15;101650.46;;;10.99;77.07
64632;BME280;58358;50.936;0.246;2023-10-09T00:44:41;101645.99;;;12.99;71.95
64632;BME280;58358;50.936;0.246;2023-10-09T00:47:07;101645.85;;;11.05;78.41
64632;BME280;58358;50.936;0.246;2023-10-09T00:49:32;101647.39;;;10.71;81.24
64632;BME280;58358;50.936;0.246;2023-10-09T00:51:57;101646.95;;;12.20;75.60
64632;BME280;58358;50.936;0.246;2023-10-09T00:54:23;101639.22;;;12.79;70.34
64632;BME280;58358;50.936;0.246;2023-10-09T00:56:49;101642.06;;;12.14;72.38
64632;BME280;58358;50.936;0.246;2023-10-09T00:59:16;101639.43;;;12.08;72.60
64632;BME280;58358;50.936;0.246;2023-10-09T01:01:40;101641.34;;;11.00;76.27
64632;BME280;58358;50.936;0.246;2023-10-09T01:04:05;101639.23;;;12.99;70.25
64632;BME280;58358;50.936;0.246;2023-10-09T01:06:31;101641.70;;;11.90;72.51
64632;BME280;58358;50.936;0.246;2023-10-09T01:08:57;101641.39;;;12.92;69.21
64632;BME280;58358;50.936;0.246;2023-10-09T01:11:22;101642.00;;;13.06;68.50
64632;BME280;58358;50.936;0.246;2023-10-09T01:13:49;101641.42;;;13.56;65.80
64632;BME280;58358;50.936;0.246;2023-10-09T01:16:14;101642.97;;;13.95;65.06
64632;BME280;58358;50.936;0.246;2023-10-09T01:18:39;101643.87;;;13.38;66.28
64632;BME280;58358;50.936;0.246;2023-10-09T01:21:05;101642.11;;;12.70;67.95
64632;BME280;58358;50.936;0.246;2023-10-09T01:23:31;101639.18;;;12.38;70.39
64632;BME280;58358;50.936;0.246;2023-10-09T01:25:57;101639.98;;;11.54;77.26
64632;BME280;58358;50.936;0.246;2023-10-09T01:28:22;101639.56;;;13.30;71.04
64632;BME280;58358;50.936;0.246;2023-10-09T01:30:48;101644.58;;;12.05;73.47
64632;BME280;58358;50.936;0.246;2023-10-09T01:33:15;101641.12;;;11.67;75.93
64632;BME280;58358;50.936;0.246;2023-10-09T01:35:39;101636.93;;;11.97;72.19
64632;BME280;58358;50.936;0.246;2023-10-09T01:38:05;101635.02;;;11.90;75.01
64632;BME280;58358;50.936;0.246;2023-10-09T01:40:30;101629.17;;;10.80;77.02
64632;BME280;58358;50.936;0.246;2023-10-09T01:42:56;101629.60;;;10.33;79.55
64632;BME280;58358;50.936;0.246;2023-10-09T01:45:22;101636.42;;;12.06;77.34
64632;BME280;58358;50.936;0.246;2023-10-09T01:47:48;101637.24;;;10.44;82.06
64632;BME280;58358;50.936;0.246;2023-10-09T01:50:13;101638.15;;;11.53;79.98
64632;BME280;58358;50.936;0.246;2023-10-09T01:52:40;101640.12;;;11.93;78.17
64632;BME280;58358;50.936;0.246;2023-10-09T01:55:06;101642.11;;;11.46;78.26
64632;BME280;58358;50.936;0.246;2023-10-09T01:57:31;101644.10;;;11.02;80.02
64632;BME280;58358;50.936;0.246;2023-10-09T01:59:56;101647.52;;;11.63;79.29
64632;BME280;58358;50.936;0.246;2023-10-09T02:02:22;101644.72;;;11.23;77.46
64632;BME280;58358;50.936;0.246;2023-10-09T02:04:48;101639.76;;;11.82;76.85
64632;BME280;58358;50.936;0.246;2023-10-09T02:07:13;101634.16;;;11.94;76.07
64632;BME280;58358;50.936;0.246;2023-10-09T02:09:39;101626.23;;;12.68;74.20
64632;BME280;58358;50.936;0.246;2023-10-09T02:12:05;101622.00;;;12.61;73.64
64632;BME280;58358;50.936;0.246;2023-10-09T02:14:31;101620.62;;;11.99;75.93
64632;BME280;58358;50.936;0.246;2023-10-09T02:16:56;101623.29;;;12.12;76.07
64632;BME280;58358;50.936;0.246;2023-10-09T02:19:21;101617.81;;;10.79;82.94
64632;BME280;58358;50.936;0.246;2023-10-09T02:21:47;101627.84;;;11.92;78.60
64632;BME280;58358;50.936;0.246;2023-10-09T02:24:13;101633.12;;;11.78;78.23
64632;BME280;58358;50.936;0.246;2023-10-09T02:26:38;101627.55;;;11.75;80.41
64632;BME280;58358;50.936;0.246;2023-10-09T02:29:06;101620.47;;;10.90;82.63
64632;BME280;58358;50.936;0.246;2023-10-09T02:31:32;101623.47;;;12.80;75.00
64632;BME280;58358;50.936;0.246;2023-10-09T02:33:55;101626.91;;;11.71;78.89
64632;BME280;58358;50.936;0.246;2023-10-09T02:36:22;101616.72;;;12.56;75.17
64632;BME280;58358;50.936;0.246;2023-10-09T02:38:47;101624.91;;;12.26;75.91
64632;BME280;58358;50.936;0.246;2023-10-09T02:41:12;101618.26;;;11.72;76.50
64632;BME280;58358;50.936;0.246;2023-10-09T02:43:40;101613.97;;;12.53;75.56
64632;BME280;58358;50.936;0.246;2023-10-09T02:46:04;101608.35;;;12.72;74.60
64632;BME280;58358;50.936;0.246;2023-10-09T02:48:30;101605.01;;;12.64;74.49
64632;BME280;58358;50.936;0.246;2023-10-09T02:50:56;101606.66;;;11.71;76.08
64632;BME280;58358;50.936;0.246;2023-10-09T02:53:22;101606.73;;;12.41;75.37
64632;BME280;58358;50.936;0.246;2023-10-09T02:55:47;101598.99;;;10.81;79.34
64632;BME280;58358;50.936;0.246;2023-10-09T02:58:13;101600.28;;;10.47;82.50
64632;BME280;58358;50.936;0.246;2023-10-09T03:00:39;101596.71;;;11.45;82.24
64632;BME280;58358;50.936;0.246;2023-10-09T03:03:04;101599.93;;;12.43;76.55
64632;BME280;58358;50.936;0.246;2023-10-09T03:05:30;101603.06;;;11.56;78.09
64632;BME280;58358;50.936;0.246;2023-10-09T03:07:55;101600.51;;;12.25;75.86
64632;BME280;58358;50.936;0.246;2023-10-09T03:10:22;101600.84;;;12.34;73.76
64632;BME280;58358;50.936;0.246;2023-10-09T03:12:47;101597.62;;;12.77;72.94
64632;BME280;58358;50.936;0.246;2023-10-09T03:15:12;101594.22;;;12.57;73.32
64632;BME280;58358;50.936;0.246;2023-10-09T03:17:40;101589.36;;;13.06;72.90
64632;BME280;58358;50.936;0.246;2023-10-09T03:20:05;101589.52;;;13.07;71.09
64632;BME280;58358;50.936;0.246;2023-10-09T03:22:29;101594.54;;;13.17;71.20
64632;BME280;58358;50.936;0.246;2023-10-09T03:24:55;101597.81;;;12.74;71.09
64632;BME280;58358;50.936;0.246;2023-10-09T03:27:22;101594.79;;;12.90;70.71
64632;BME280;58358;50.936;0.246;2023-10-09T03:29:47;101592.17;;;12.68;73.09
64632;BME280;58358;50.936;0.246;2023-10-09T03:32:12;101589.12;;;12.45;71.80
64632;BME280;58358;50.936;0.246;2023-10-09T03:34:38;101592.68;;;12.56;71.99
64632;BME280;58358;50.936;0.246;2023-10-09T03:37:04;101592.58;;;11.96;73.42
64632;BME280;58358;50.936;0.246;2023-10-09T03:39:30;101597.12;;;12.34;72.85
64632;BME280;58358;50.936;0.246;2023-10-09T03:41:56;101594.35;;;13.03;70.91
64632;BME280;58358;50.936;0.246;2023-10-09T03:44:22;101598.47;;;12.62;72.37
64632;BME280;58358;50.936;0.246;2023-10-09T03:46:47;101593.91;;;13.05;71.00
64632;BME280;58358;50.936;0.246;2023-10-09T03:49:13;101593.97;;;12.50;72.21
64632;BME280;58358;50.936;0.246;2023-10-09T03:51:38;101597.26;;;12.00;73.59
64632;BME280;58358;50.936;0.246;2023-10-09T03:54:03;101591.46;;;12.91;71.66
64632;BME280;58358;50.936;0.246;2023-10-09T03:56:28;101594.28;;;12.28;73.46
64632;BME280;58358;50.936;0.246;2023-10-09T03:58:54;101593.54;;;11.89;75.77
64632;BME280;58358;50.936;0.246;2023-10-09T04:01:21;101595.16;;;11.66;76.20
64632;BME280;58358;50.936;0.246;2023-10-09T04:03:45;101593.71;;;11.86;76.52
64632;BME280;58358;50.936;0.246;2023-10-09T04:06:11;101590.75;;;12.73;72.13
64632;BME280;58358;50.936;0.246;2023-10-09T04:08:37;101585.21;;;13.27;69.87
64632;BME280;58358;50.936;0.246;2023-10-09T04:11:02;101580.96;;;12.95;71.30
64632;BME280;58358;50.936;0.246;2023-10-09T04:13:28;101578.17;;;12.64;71.60
64632;BME280;58358;50.936;0.246;2023-10-09T04:15:53;101579.47;;;12.79;71.79
64632;BME280;58358;50.936;0.246;2023-10-09T04:18:20;101574.06;;;11.42;77.22
64632;BME280;58358;50.936;0.246;2023-10-09T04:20:44;101577.80;;;12.78;73.00
64632;BME280;58358;50.936;0.246;2023-10-09T04:23:10;101579.88;;;12.74;72.82
64632;BME280;58358;50.936;0.246;2023-10-09T04:25:36;101584.10;;;11.97;73.97
64632;BME280;58358;50.936;0.246;2023-10-09T04:28:01;101584.55;;;11.71;77.52
64632;BME280;58358;50.936;0.246;2023-10-09T04:30:27;101581.88;;;10.58;81.82
64632;BME280;58358;50.936;0.246;2023-10-09T04:32:53;101587.17;;;11.53;79.38
64632;BME280;58358;50.936;0.246;2023-10-09T04:35:18;101591.45;;;11.91;77.26
64632;BME280;58358;50.936;0.246;2023-10-09T04:37:44;101593.34;;;10.37;81.82
64632;BME280;58358;50.936;0.246;2023-10-09T04:40:10;101592.55;;;10.69;82.95
64632;BME280;58358;50.936;0.246;2023-10-09T04:42:35;101592.92;;;11.55;80.74
64632;BME280;58358;50.936;0.246;2023-10-09T04:45:02;101591.82;;;11.19;79.80
64632;BME280;58358;50.936;0.246;2023-10-09T04:47:27;101593.14;;;12.19;76.38
64632;BME280;58358;50.936;0.246;2023-10-09T04:49:52;101591.62;;;12.10;75.96
64632;BME280;58358;50.936;0.246;2023-10-09T04:52:18;101588.14;;;12.20;75.73
64632;BME280;58358;50.936;0.246;2023-10-09T04:54:43;101585.87;;;11.04;78.07
64632;BME280;58358;50.936;0.246;2023-10-09T04:57:09;101584.75;;;11.44;78.79
64632;BME280;58358;50.936;0.246;2023-10-09T04:59:34;101582.92;;;12.21;74.89
64632;BME280;58358;50.936;0.246;2023-10-09T05:02:01;101578.66;;;12.24;73.25
64632;BME280;58358;50.936;0.246;2023-10-09T05:04:26;101573.43;;;12.08;75.96
64632;BME280;58358;50.936;0.246;2023-10-09T05:06:51;101570.84;;;12.86;72.00
64632;BME280;58358;50.936;0.246;2023-10-09T05:09:17;101574.60;;;12.73;71.93
64632;BME280;58358;50.936;0.246;2023-10-09T05:11:43;101576.57;;;12.70;72.11
64632;BME280;58358;50.936;0.246;2023-10-09T05:14:08;101577.47;;;11.02;77.93
64632;BME280;58358;50.936;0.246;2023-10-09T05:16:34;101581.35;;;10.89;81.01
64632;BME280;58358;50.936;0.246;2023-10-09T05:19:00;101588.93;;;10.97;80.65
64632;BME280;58358;50.936;0.246;2023-10-09T05:21:30;101590.28;;;11.18;79.43
64632;BME280;58358;50.936;0.246;2023-10-09T05:23:51;101597.38;;;11.79;77.32
64632;BME280;58358;50.936;0.246;2023-10-09T05:26:16;101596.91;;;12.32;75.54
64632;BME280;58358;50.936;0.246;2023-10-09T05:28:44;101596.77;;;11.46;79.01
64632;BME280;58358;50.936;0.246;2023-10-09T05:31:10;101590.90;;;11.28;78.79
64632;BME280;58358;50.936;0.246;2023-10-09T05:33:34;101592.43;;;11.44;79.60
64632;BME280;58358;50.936;0.246;2023-10-09T05:36:02;101597.54;;;11.59;80.29
64632;BME280;58358;50.936;0.246;2023-10-09T05:38:25;101598.45;;;12.37;76.33
64632;BME280;58358;50.936;0.246;2023-10-09T05:40:51;101592.67;;;12.74;74.52
64632;BME280;58358;50.936;0.246;2023-10-09T05:43:16;101590.21;;;12.07;76.19
64632;BME280;58358;50.936;0.246;2023-10-09T05:45:41;101587.54;;;12.25;75.60
64632;BME280;58358;50.936;0.246;2023-10-09T05:48:07;101584.99;;;11.92;75.87
64632;BME280;58358;50.936;0.246;2023-10-09T05:50:32;101584.97;;;11.14;79.68
64632;BME280;58358;50.936;0.246;2023-10-09T05:52:58;101590.23;;;11.31;79.56
64632;BME280;58358;50.936;0.246;2023-10-09T05:55:24;101592.52;;;10.10;88.31
64632;BME280;58358;50.936;0.246;2023-10-09T05:57:49;101599.16;;;10.73;83.16
64632;BME280;58358;50.936;0.246;2023-10-09T06:00:16;101607.75;;;9.79;87.00
64632;BME280;58358;50.936;0.246;2023-10-09T06:02:41;101610.24;;;10.03;91.70
64632;BME280;58358;50.936;0.246;2023-10-09T06:05:07;101609.49;;;11.16;85.39
64632;BME280;58358;50.936;0.246;2023-10-09T06:07:32;101613.95;;;9.84;88.17
64632;BME280;58358;50.936;0.246;2023-10-09T06:09:58;101615.98;;;10.55;87.24
64632;BME280;58358;50.936;0.246;2023-10-09T06:12:23;101618.74;;;9.30;89.77
64632;BME280;58358;50.936;0.246;2023-10-09T06:14:49;101621.89;;;9.78;91.73
64632;BME280;58358;50.936;0.246;2023-10-09T06:17:15;101621.59;;;11.30;85.43
64632;BME280;58358;50.936;0.246;2023-10-09T06:19:41;101619.72;;;10.29;87.53
64632;BME280;58358;50.936;0.246;2023-10-09T06:22:06;101613.72;;;11.25;85.02
64632;BME280;58358;50.936;0.246;2023-10-09T06:24:32;101614.84;;;10.38;91.79
64632;BME280;58358;50.936;0.246;2023-10-09T06:26:58;101616.19;;;10.61;90.20
64632;BME280;58358;50.936;0.246;2023-10-09T06:29:23;101618.36;;;10.82;88.95
64632;BME280;58358;50.936;0.246;2023-10-09T06:31:49;101624.09;;;9.00;100.00
64632;BME280;58358;50.936;0.246;2023-10-09T06:34:15;101629.98;;;9.92;95.23
64632;BME280;58358;50.936;0.246;2023-10-09T06:36:41;101632.47;;;9.79;96.24
64632;BME280;58358;50.936;0.246;2023-10-09T06:39:06;101641.36;;;10.25;92.62
64632;BME280;58358;50.936;0.246;2023-10-09T06:41:32;101643.51;;;10.19;91.72
64632;BME280;58358;50.936;0.246;2023-10-09T06:43:58;101642.47;;;9.25;98.35
64632;BME280;58358;50.936;0.246;2023-10-09T06:46:24;101634.45;;;10.09;96.63
64632;BME280;58358;50.936;0.246;2023-10-09T06:48:49;101630.47;;;10.71;90.63
64632;BME280;58358;50.936;0.246;2023-10-09T06:51:15;101637.40;;;10.89;88.87
64632;BME280;58358;50.936;0.246;2023-10-09T06:53:41;101640.48;;;10.73;90.61
64632;BME280;58358;50.936;0.246;2023-10-09T06:56:06;101633.32;;;10.24;92.32
64632;BME280;58358;50.936;0.246;2023-10-09T06:58:32;101625.67;;;10.54;94.02
64632;BME280;58358;50.936;0.246;2023-10-09T07:00:57;101619.80;;;10.93;91.55
64632;BME280;58358;50.936;0.246;2023-10-09T07:03:23;101622.90;;;11.87;87.64
64632;BME280;58358;50.936;0.246;2023-10-09T07:05:49;101624.74;;;11.75;85.39
64632;BME280;58358;50.936;0.246;2023-10-09T07:08:14;101622.75;;;11.97;84.48
64632;BME280;58358;50.936;0.246;2023-10-09T07:13:06;101626.96;;;11.30;88.67
64632;BME280;58358;50.936;0.246;2023-10-09T07:15:31;101624.90;;;9.78;99.62
64632;BME280;58358;50.936;0.246;2023-10-09T07:17:57;101638.75;;;9.99;98.66
64632;BME280;58358;50.936;0.246;2023-10-09T07:20:23;101646.25;;;11.05;91.19
64632;BME280;58358;50.936;0.246;2023-10-09T07:22:49;101643.48;;;11.52;91.69
64632;BME280;58358;50.936;0.246;2023-10-09T07:25:14;101642.84;;;12.35;86.68
64632;BME280;58358;50.936;0.246;2023-10-09T07:27:40;101641.29;;;13.45;82.04
64632;BME280;58358;50.936;0.246;2023-10-09T07:30:06;101639.76;;;13.66;80.10
64632;BME280;58358;50.936;0.246;2023-10-09T07:32:31;101640.37;;;13.60;82.63
64632;BME280;58358;50.936;0.246;2023-10-09T07:34:57;101641.86;;;13.19;82.27
64632;BME280;58358;50.936;0.246;2023-10-09T07:37:23;101652.63;;;11.62;95.34
64632;BME280;58358;50.936;0.246;2023-10-09T07:39:47;101666.98;;;12.71;90.29
64632;BME280;58358;50.936;0.246;2023-10-09T07:42:13;101658.76;;;13.14;92.34
64632;BME280;58358;50.936;0.246;2023-10-09T07:44:41;101649.23;;;14.71;86.77
64632;BME280;58358;50.936;0.246;2023-10-09T07:47:05;101658.05;;;14.38;83.65
64632;BME280;58358;50.936;0.246;2023-10-09T07:49:30;101658.05;;;14.07;85.12
64632;BME280;58358;50.936;0.246;2023-10-09T07:51:55;101653.19;;;14.04;84.84
64632;BME280;58358;50.936;0.246;2023-10-09T07:54:21;101657.93;;;14.87;82.77
64632;BME280;58358;50.936;0.246;2023-10-09T07:56:50;101667.06;;;14.37;85.23
64632;BME280;58358;50.936;0.246;2023-10-09T07:59:13;101667.90;;;15.15;83.15
64632;BME280;58358;50.936;0.246;2023-10-09T08:01:39;101672.00;;;16.18;78.21
64632;BME280;58358;50.936;0.246;2023-10-09T08:04:04;101669.76;;;16.08;76.88
64632;BME280;58358;50.936;0.246;2023-10-09T08:06:29;101667.07;;;16.59;76.53
64632;BME280;58358;50.936;0.246;2023-10-09T08:08:55;101670.45;;;16.05;77.31
64632;BME280;58358;50.936;0.246;2023-10-09T08:11:20;101662.32;;;16.54;76.44
64632;BME280;58358;50.936;0.246;2023-10-09T08:13:46;101664.72;;;17.61;74.06
64632;BME280;58358;50.936;0.246;2023-10-09T08:16:12;101674.25;;;17.76;73.64
64632;BME280;58358;50.936;0.246;2023-10-09T08:18:37;101665.36;;;17.99;73.76
64632;BME280;58358;50.936;0.246;2023-10-09T08:21:02;101657.93;;;18.33;73.16
64632;BME280;58358;50.936;0.246;2023-10-09T08:23:27;101677.56;;;17.10;75.99
64632;BME280;58358;50.936;0.246;2023-10-09T08:25:59;101664.88;;;17.70;76.35
64632;BME280;58358;50.936;0.246;2023-10-09T08:28:18;101646.41;;;17.30;76.59
64632;BME280;58358;50.936;0.246;2023-10-09T08:30:43;101647.42;;;17.28;75.80
64632;BME280;58358;50.936;0.246;2023-10-09T08:33:08;101641.59;;;17.70;75.64
64632;BME280;58358;50.936;0.246;2023-10-09T08:35:35;101648.96;;;18.51;73.65
64632;BME280;58358;50.936;0.246;2023-10-09T08:38:00;101664.80;;;17.92;75.76
64632;BME280;58358;50.936;0.246;2023-10-09T08:40:30;101660.19;;;17.70;80.16
64632;BME280;58358;50.936;0.246;2023-10-09T08:42:54;101652.33;;;18.84;72.97
64632;BME280;58358;50.936;0.246;2023-10-09T08:45:15;101651.83;;;19.48;69.02
64632;BME280;58358;50.936;0.246;2023-10-09T08:47:40;101655.52;;;18.41;74.50
64632;BME280;58358;50.936;0.246;2023-10-09T08:50:06;101646.00;;;18.55;73.44
64632;BME280;58358;50.936;0.246;2023-10-09T08:52:31;101648.36;;;19.74;69.84
64632;BME280;58358;50.936;0.246;2023-10-09T08:54:56;101675.41;;;18.25;72.12
64632;BME280;58358;50.936;0.246;2023-10-09T08:57:21;101690.49;;;19.12;71.36
64632;BME280;58358;50.936;0.246;2023-10-09T08:59:47;101663.16;;;18.29;73.31
64632;BME280;58358;50.936;0.246;2023-10-09T09:02:12;101659.53;;;19.48;67.09
64632;BME280;58358;50.936;0.246;2023-10-09T09:04:39;101667.26;;;19.52;67.98
64632;BME280;58358;50.936;0.246;2023-10-09T09:07:03;101653.25;;;19.88;68.90
64632;BME280;58358;50.936;0.246;2023-10-09T09:09:29;101660.05;;;19.47;68.89
64632;BME280;58358;50.936;0.246;2023-10-09T09:11:54;101673.27;;;18.54;71.77
64632;BME280;58358;50.936;0.246;2023-10-09T09:14:19;101670.58;;;18.36;69.27
64632;BME280;58358;50.936;0.246;2023-10-09T09:16:45;101676.54;;;19.23;64.67
64632;BME280;58358;50.936;0.246;2023-10-09T09:21:37;101669.67;;;19.40;62.66
64632;BME280;58358;50.936;0.246;2023-10-09T09:26:35;101667.16;;;19.77;60.83
64632;BME280;58358;50.936;0.246;2023-10-09T09:28:52;101665.76;;;18.48;63.55
64632;BME280;58358;50.936;0.246;2023-10-09T09:31:17;101664.45;;;20.20;59.42
64632;BME280;58358;50.936;0.246;2023-10-09T09:33:42;101664.22;;;19.69;61.30
64632;BME280;58358;50.936;0.246;2023-10-09T09:36:08;101671.89;;;19.42;63.32
64632;BME280;58358;50.936;0.246;2023-10-09T09:38:35;101671.85;;;19.93;63.75
64632;BME280;58358;50.936;0.246;2023-10-09T09:40:59;101670.12;;;20.09;63.02
64632;BME280;58358;50.936;0.246;2023-10-09T09:43:26;101667.45;;;20.33;62.46
64632;BME280;58358;50.936;0.246;2023-10-09T09:45:55;101655.59;;;20.65;60.62
64632;BME280;58358;50.936;0.246;2023-10-09T09:48:16;101651.28;;;20.50;58.04
64632;BME280;58358;50.936;0.246;2023-10-09T09:50:42;101654.65;;;19.54;59.98
64632;BME280;58358;50.936;0.246;2023-10-09T09:53:07;101664.25;;;20.05;59.45
64632;BME280;58358;50.936;0.246;2023-10-09T09:55:34;101678.08;;;19.81;58.89
64632;BME280;58358;50.936;0.246;2023-10-09T09:57:59;101671.79;;;19.71;59.46
64632;BME280;58358;50.936;0.246;2023-10-09T10:00:29;101671.79;;;19.68;58.17
64632;BME280;58358;50.936;0.246;2023-10-09T10:02:50;101684.79;;;19.51;60.06
64632;BME280;58358;50.936;0.246;2023-10-09T10:05:16;101691.50;;;19.24;60.19
64632;BME280;58358;50.936;0.246;2023-10-09T10:07:41;101676.61;;;19.92;56.98
64632;BME280;58358;50.936;0.246;2023-10-09T10:14:58;101667.57;;;17.48;56.85
64632;BME280;58358;50.936;0.246;2023-10-09T10:17:23;101663.00;;;17.54;55.73
64632;BME280;58358;50.936;0.246;2023-10-09T10:19:59;101656.06;;;18.17;56.58
64632;BME280;58358;50.936;0.246;2023-10-09T10:22:23;101644.88;;;18.70;57.85
64632;BME280;58358;50.936;0.246;2023-10-09T10:24:42;101635.23;;;18.37;60.22
64632;BME280;58358;50.936;0.246;2023-10-09T10:27:15;101628.18;;;19.12;59.28
64632;BME280;58358;50.936;0.246;2023-10-09T10:29:30;101631.28;;;19.25;58.10
64632;BME280;58358;50.936;0.246;2023-10-09T10:31:57;101637.88;;;20.39;54.65
64632;BME280;58358;50.936;0.246;2023-10-09T10:34:21;101634.12;;;19.29;56.87
64632;BME280;58358;50.936;0.246;2023-10-09T10:36:46;101633.19;;;19.15;56.43
64632;BME280;58358;50.936;0.246;2023-10-09T10:39:12;101645.66;;;19.30;57.27
64632;BME280;58358;50.936;0.246;2023-10-09T10:41:37;101657.77;;;17.83;58.88
64632;BME280;58358;50.936;0.246;2023-10-09T10:44:03;101664.56;;;19.23;57.55
64632;BME280;58358;50.936;0.246;2023-10-09T10:46:28;101658.67;;;17.64;63.04
64632;BME280;58358;50.936;0.246;2023-10-09T10:48:54;101647.76;;;18.44;60.03
64632;BME280;58358;50.936;0.246;2023-10-09T10:51:19;101664.54;;;17.90;61.38
64632;BME280;58358;50.936;0.246;2023-10-09T10:53:51;101674.81;;;18.76;60.42
64632;BME280;58358;50.936;0.246;2023-10-09T10:56:09;101671.24;;;18.34;62.84
64632;BME280;58358;50.936;0.246;2023-10-09T10:58:35;101667.04;;;18.85;61.52
64632;BME280;58358;50.936;0.246;2023-10-09T11:01:00;101664.90;;;19.10;59.26
64632;BME280;58358;50.936;0.246;2023-10-09T11:03:26;101657.71;;;19.19;61.38
64632;BME280;58358;50.936;0.246;2023-10-09T11:05:51;101652.31;;;18.08;61.94
64632;BME280;58358;50.936;0.246;2023-10-09T11:08:18;101652.98;;;18.54;62.12
64632;BME280;58358;50.936;0.246;2023-10-09T11:10:42;101661.37;;;18.69;61.14
64632;BME280;58358;50.936;0.246;2023-10-09T11:13:08;101663.79;;;18.05;63.37
64632;BME280;58358;50.936;0.246;2023-10-09T11:15:34;101651.81;;;18.79;62.39
64632;BME280;58358;50.936;0.246;2023-10-09T11:17:59;101640.40;;;18.55;62.87
64632;BME280;58358;50.936;0.246;2023-10-09T11:20:24;101642.52;;;20.08;58.28
64632;BME280;58358;50.936;0.246;2023-10-09T11:22:50;101637.55;;;19.87;57.60
64632;BME280;58358;50.936;0.246;2023-10-09T11:25:15;101635.52;;;20.95;56.27
64632;BME280;58358;50.936;0.246;2023-10-09T11:27:40;101635.09;;;20.19;57.46
64632;BME280;58358;50.936;0.246;2023-10-09T11:30:07;101630.39;;;20.50;58.05
64632;BME280;58358;50.936;0.246;2023-10-09T11:32:31;101623.07;;;19.75;57.36
64632;BME280;58358;50.936;0.246;2023-10-09T11:35:10;101620.79;;;20.52;56.60
64632;BME280;58358;50.936;0.246;2023-10-09T11:37:26;101618.40;;;20.29;54.86
64632;BME280;58358;50.936;0.246;2023-10-09T11:39:48;101616.69;;;20.19;56.16
64632;BME280;58358;50.936;0.246;2023-10-09T11:42:14;101622.89;;;20.79;55.12
64632;BME280;58358;50.936;0.246;2023-10-09T11:44:40;101619.46;;;19.89;57.85
64632;BME280;58358;50.936;0.246;2023-10-09T11:47:10;101618.43;;;19.40;59.56
64632;BME280;58358;50.936;0.246;2023-10-09T11:49:31;101616.92;;;19.74;60.30
64632;BME280;58358;50.936;0.246;2023-10-09T11:52:05;101620.22;;;20.24;58.03
64632;BME280;58358;50.936;0.246;2023-10-09T11:54:29;101615.70;;;19.32;61.27
64632;BME280;58358;50.936;0.246;2023-10-09T11:56:47;101610.03;;;19.48;61.00
64632;BME280;58358;50.936;0.246;2023-10-09T11:59:13;101616.73;;;19.89;59.02
64632;BME280;58358;50.936;0.246;2023-10-09T12:01:39;101623.16;;;18.38;63.91
64632;BME280;58358;50.936;0.246;2023-10-09T12:04:05;101618.85;;;19.35;61.72
64632;BME280;58358;50.936;0.246;2023-10-09T12:06:30;101617.92;;;19.24;61.10
64632;BME280;58358;50.936;0.246;2023-10-09T12:08:55;101614.32;;;19.25;60.28
64632;BME280;58358;50.936;0.246;2023-10-09T12:11:20;101606.30;;;19.62;59.78
64632;BME280;58358;50.936;0.246;2023-10-09T12:13:45;101601.81;;;18.96;59.77
64632;BME280;58358;50.936;0.246;2023-10-09T12:18:37;101600.93;;;20.72;55.40
64632;BME280;58358;50.936;0.246;2023-10-09T12:21:02;101604.00;;;20.62;57.31
64632;BME280;58358;50.936;0.246;2023-10-09T12:23:28;101608.63;;;19.07;62.27
64632;BME280;58358;50.936;0.246;2023-10-09T12:25:54;101611.39;;;19.71;57.80
64632;BME280;58358;50.936;0.246;2023-10-09T12:28:19;101611.35;;;20.05;58.73
64632;BME280;58358;50.936;0.246;2023-10-09T12:30:45;101615.18;;;19.81;59.35
64632;BME280;58358;50.936;0.246;2023-10-09T12:33:11;101614.27;;;19.30;58.50
64632;BME280;58358;50.936;0.246;2023-10-09T12:35:37;101613.65;;;21.42;53.77
64632;BME280;58358;50.936;0.246;2023-10-09T12:38:02;101606.41;;;20.50;56.56
64632;BME280;58358;50.936;0.246;2023-10-09T12:40:27;101601.46;;;20.57;56.18
64632;BME280;58358;50.936;0.246;2023-10-09T12:42:53;101598.67;;;20.35;56.14
64632;BME280;58358;50.936;0.246;2023-10-09T12:45:18;101588.57;;;19.32;58.75
64632;BME280;58358;50.936;0.246;2023-10-09T12:47:43;101581.85;;;21.14;54.05
64632;BME280;58358;50.936;0.246;2023-10-09T12:50:09;101569.18;;;21.63;50.76
64632;BME280;58358;50.936;0.246;2023-10-09T12:52:34;101564.76;;;20.93;50.93
64632;BME280;58358;50.936;0.246;2023-10-09T12:55:00;101558.81;;;21.50;49.92